Boggs, West Virginia
Current Conditions -  °F | °C
As of 4:15 AM on Thursday 27 Nov 2014 (Local Time) from KLWB Reporting Station
Unknown Precip Unknown Precip  
Wind Chill: 33°   Ceiling: 400
Heat Index: 33°   Visibility: 1.2mi
Dew Point: 32°   Wind: 0mph
Humidity: 96%   Direction: NA
Pressure: 29.95"   Gusts: NA
Location:  38.3787°N, 80.4763°W
Report Text: KLWB 270915Z AUTO 00000KT 1 1/4SM UP OVC004 01/00 A2995 RMK AO2 T00080002
Loading
Personal Weather Stations






























Interactive Weather Map New forecast layout! Learn more

10-Day Weather Forecast

Advertisements
Track Severe Weather on mobile